Portada
METAR-TAF:

METAR-TAF

Aeroports :

Ilulissat, Grenlàndia

latitud: 69-14N, longitud: 051-04W, altitud: 29 m

Observació

L'informe es va fer fa 15 minuts, a les 02:50 UTC
Vent 5 kt del Nord
Temperatura 5°C
Humitat 87%
Pressió 1010 hPa
Visibilitat 10 km o més

METAR: BGJN 270250Z AUTO 35005KT 9999NDV NCD 05/03 Q1010

Hora: 01:05 (03:05 UTC)

Pronòstic

L'informe es va fer fa 8 hores i 52 minuts, a les 18:13 UTC
Pronòstic vàlid del 26 a les 18 UTC al 26 a les 21 UTC
Vent 12 kt del Sud
Visibilitat 10 km o més
Escasses núvols a una alçada de 2000 ft
Núvols disperses a una alçada de 20000 ft
Temporalment
l' 26 a les 18 UTC al 26 a les 21 UTC
Cel ennuvolat a una alçada de 2500 ft
Evolucionant progressivament
l' 26 a les 18 UTC al 26 a les 21 UTC
Vent 8 kt amb direcció variable

TAF: BGJN 261813Z 2618/2621 18012KT 9999 FEW020 SCT200 TEMPO 2618/2621 BKN025 BECMG 2618/2621 VRB08KT

Observacions i pronòstics meteorològics de més de 4000 aeroports (METAR i TAF).

Les estacions disponibles són els punts grocs i vermells al mapa.

Posi el ratolí al punt desitjat per veure el nom de l'estació.

Feu clic per veure les observacions i els pronòstics meteorològics.

Per canviar el mapa: feu clic els botons verds amb una creu de color negre per apropar; al botó verd amb un guió per allunyar la imatge; o en les fletxes verdes per a mapes adjacents.


METAR-TAF: